SBMO/MCZ METAR and TAF weather

Enter ICAO airport designator
Station Type Date Time Source
SBMO METAR 2019/08/22 20:00 UTC NOAA

SBMO 222000Z 16009KT 9999 SCT020 BKN070 24/21 Q1018


Station Type Date Time Source
SBMO Decoded METAR 2019/08/22 20:00 UTC NOAA

Station name not available
Aug 22, 2019 - 04:00 PM EDT / 2019.08.22 2000 UTC
Wind: from the SSE (160 degrees) at 10 MPH (9 KT):0
Visibility: greater than 7 mile(s):0
Sky conditions: mostly cloudy
Temperature: 75 F (24 C)
Dew Point: 69 F (21 C)
Relative Humidity: 83%
Pressure (altimeter): 30.06 in. Hg (1018 hPa)
ob: SBMO 222000Z 16009KT 9999 SCT020 BKN070 24/21 Q1018
cycle: 20

Station Type Date Time Source
SBMO TAF 2019/08/22 18:30 UTC NOAA

TAF SBMO 221600Z 2218/2306 13010KT 9999 SCT020 TX27/2218Z TN19/2305Z
BECMG 2222/2224 18005KT
BECMG 2303/2305 30005KT
RMK PEH

Example: see airport list